sensor_id;sensor_type;location;lat;lon;timestamp;P1;durP1;ratioP1;P2;durP2;ratioP2
5965;SDS011;3009;43.224;27.976;2022-11-18T00:01:19;4.00;;;3.70;;
5965;SDS011;3009;43.224;27.976;2022-11-18T00:03:49;4.40;;;4.03;;
5965;SDS011;3009;43.224;27.976;2022-11-18T00:06:18;3.80;;;3.57;;
5965;SDS011;3009;43.224;27.976;2022-11-18T00:08:48;4.47;;;4.07;;
5965;SDS011;3009;43.224;27.976;2022-11-18T00:11:19;5.77;;;4.60;;
5965;SDS011;3009;43.224;27.976;2022-11-18T00:14:02;4.40;;;4.10;;
5965;SDS011;3009;43.224;27.976;2022-11-18T00:16:46;4.30;;;4.00;;
5965;SDS011;3009;43.224;27.976;2022-11-18T00:19:16;3.70;;;3.43;;
5965;SDS011;3009;43.224;27.976;2022-11-18T00:21:45;3.73;;;3.43;;
5965;SDS011;3009;43.224;27.976;2022-11-18T00:24:13;4.30;;;4.00;;
5965;SDS011;3009;43.224;27.976;2022-11-18T00:26:43;7.27;;;5.10;;
5965;SDS011;3009;43.224;27.976;2022-11-18T00:29:11;4.77;;;4.37;;
5965;SDS011;3009;43.224;27.976;2022-11-18T00:31:40;5.93;;;4.93;;
5965;SDS011;3009;43.224;27.976;2022-11-18T00:34:09;4.90;;;4.50;;
5965;SDS011;3009;43.224;27.976;2022-11-18T00:36:39;4.73;;;4.23;;
5965;SDS011;3009;43.224;27.976;2022-11-18T00:39:08;4.77;;;4.37;;
5965;SDS011;3009;43.224;27.976;2022-11-18T00:41:37;4.40;;;4.00;;
5965;SDS011;3009;43.224;27.976;2022-11-18T00:44:23;4.70;;;4.23;;
5965;SDS011;3009;43.224;27.976;2022-11-18T00:46:52;6.30;;;4.43;;
5965;SDS011;3009;43.224;27.976;2022-11-18T00:49:20;5.80;;;5.27;;
5965;SDS011;3009;43.224;27.976;2022-11-18T00:51:49;11.43;;;4.60;;
5965;SDS011;3009;43.224;27.976;2022-11-18T00:54:18;6.10;;;4.20;;
5965;SDS011;3009;43.224;27.976;2022-11-18T00:56:46;4.90;;;4.40;;
5965;SDS011;3009;43.224;27.976;2022-11-18T00:59:14;4.83;;;4.40;;
5965;SDS011;3009;43.224;27.976;2022-11-18T01:01:44;3.70;;;3.40;;
5965;SDS011;3009;43.224;27.976;2022-11-18T01:04:12;4.47;;;4.07;;
5965;SDS011;3009;43.224;27.976;2022-11-18T01:06:40;4.47;;;4.07;;
5965;SDS011;3009;43.224;27.976;2022-11-18T01:09:10;4.60;;;4.03;;
5965;SDS011;3009;43.224;27.976;2022-11-18T01:11:38;4.90;;;4.37;;
5965;SDS011;3009;43.224;27.976;2022-11-18T01:14:23;3.80;;;3.50;;
5965;SDS011;3009;43.224;27.976;2022-11-18T01:16:54;4.67;;;4.20;;
5965;SDS011;3009;43.224;27.976;2022-11-18T01:19:23;6.60;;;3.77;;
5965;SDS011;3009;43.224;27.976;2022-11-18T01:21:51;4.03;;;3.73;;
5965;SDS011;3009;43.224;27.976;2022-11-18T01:24:21;4.20;;;3.90;;
5965;SDS011;3009;43.224;27.976;2022-11-18T01:26:49;5.17;;;3.80;;
5965;SDS011;3009;43.224;27.976;2022-11-18T01:29:18;4.50;;;4.10;;
5965;SDS011;3009;43.224;27.976;2022-11-18T01:31:46;4.77;;;4.20;;
5965;SDS011;3009;43.224;27.976;2022-11-18T01:34:35;3.77;;;3.47;;
5965;SDS011;3009;43.224;27.976;2022-11-18T01:37:03;3.83;;;3.53;;
5965;SDS011;3009;43.224;27.976;2022-11-18T01:39:32;3.47;;;3.27;;
5965;SDS011;3009;43.224;27.976;2022-11-18T01:42:00;3.33;;;3.13;;
5965;SDS011;3009;43.224;27.976;2022-11-18T01:47:31;3.10;;;2.90;;
5965;SDS011;3009;43.224;27.976;2022-11-18T01:50:04;3.03;;;2.83;;
5965;SDS011;3009;43.224;27.976;2022-11-18T01:52:33;2.53;;;2.43;;
5965;SDS011;3009;43.224;27.976;2022-11-18T01:55:03;2.87;;;2.70;;
5965;SDS011;3009;43.224;27.976;2022-11-18T01:57:37;3.27;;;3.00;;
5965;SDS011;3009;43.224;27.976;2022-11-18T02:00:06;3.97;;;3.00;;
5965;SDS011;3009;43.224;27.976;2022-11-18T02:02:35;3.20;;;3.00;;
5965;SDS011;3009;43.224;27.976;2022-11-18T02:05:07;2.80;;;2.60;;
5965;SDS011;3009;43.224;27.976;2022-11-18T02:07:38;2.80;;;2.50;;
5965;SDS011;3009;43.224;27.976;2022-11-18T02:10:09;2.80;;;2.70;;
5965;SDS011;3009;43.224;27.976;2022-11-18T02:12:44;4.03;;;2.73;;
5965;SDS011;3009;43.224;27.976;2022-11-18T02:15:13;2.70;;;2.60;;
5965;SDS011;3009;43.224;27.976;2022-11-18T02:17:44;2.30;;;2.20;;
5965;SDS011;3009;43.224;27.976;2022-11-18T02:26:30;2.80;;;2.67;;
5965;SDS011;3009;43.224;27.976;2022-11-18T02:29:17;4.43;;;3.10;;
5965;SDS011;3009;43.224;27.976;2022-11-18T02:31:48;2.83;;;2.63;;
5965;SDS011;3009;43.224;27.976;2022-11-18T02:34:24;3.43;;;2.77;;
5965;SDS011;3009;43.224;27.976;2022-11-18T02:37:04;3.03;;;2.73;;
5965;SDS011;3009;43.224;27.976;2022-11-18T02:39:41;2.53;;;2.43;;
5965;SDS011;3009;43.224;27.976;2022-11-18T02:42:15;4.37;;;4.07;;
5965;SDS011;3009;43.224;27.976;2022-11-18T02:44:46;4.20;;;3.17;;
5965;SDS011;3009;43.224;27.976;2022-11-18T02:47:19;3.23;;;3.00;;
5965;SDS011;3009;43.224;27.976;2022-11-18T02:49:50;3.30;;;2.90;;
5965;SDS011;3009;43.224;27.976;2022-11-18T02:52:22;2.70;;;2.50;;
5965;SDS011;3009;43.224;27.976;2022-11-18T02:54:52;3.17;;;2.97;;
5965;SDS011;3009;43.224;27.976;2022-11-18T02:57:22;4.10;;;3.80;;
5965;SDS011;3009;43.224;27.976;2022-11-18T02:59:53;3.80;;;3.50;;
5965;SDS011;3009;43.224;27.976;2022-11-18T03:02:21;2.97;;;2.87;;
5965;SDS011;3009;43.224;27.976;2022-11-18T03:04:50;3.80;;;3.50;;
5965;SDS011;3009;43.224;27.976;2022-11-18T03:07:21;3.90;;;3.60;;
5965;SDS011;3009;43.224;27.976;2022-11-18T03:09:54;5.17;;;3.30;;
5965;SDS011;3009;43.224;27.976;2022-11-18T03:12:27;4.33;;;3.80;;
5965;SDS011;3009;43.224;27.976;2022-11-18T03:15:08;3.50;;;3.30;;
5965;SDS011;3009;43.224;27.976;2022-11-18T03:17:46;3.50;;;3.20;;
5965;SDS011;3009;43.224;27.976;2022-11-18T03:20:23;4.07;;;3.80;;
5965;SDS011;3009;43.224;27.976;2022-11-18T03:22:56;3.53;;;3.30;;
5965;SDS011;3009;43.224;27.976;2022-11-18T03:25:32;3.20;;;3.00;;
5965;SDS011;3009;43.224;27.976;2022-11-18T03:28:06;3.20;;;3.00;;
5965;SDS011;3009;43.224;27.976;2022-11-18T03:30:42;2.93;;;2.83;;
5965;SDS011;3009;43.224;27.976;2022-11-18T03:33:16;3.07;;;2.87;;
5965;SDS011;3009;43.224;27.976;2022-11-18T03:35:48;2.87;;;2.67;;
5965;SDS011;3009;43.224;27.976;2022-11-18T03:38:20;2.53;;;2.43;;
5965;SDS011;3009;43.224;27.976;2022-11-18T03:40:53;2.93;;;2.80;;
5965;SDS011;3009;43.224;27.976;2022-11-18T03:43:26;3.07;;;2.87;;
5965;SDS011;3009;43.224;27.976;2022-11-18T03:46:00;3.37;;;3.07;;
5965;SDS011;3009;43.224;27.976;2022-11-18T03:48:34;3.03;;;2.83;;
5965;SDS011;3009;43.224;27.976;2022-11-18T03:51:08;4.40;;;3.20;;
5965;SDS011;3009;43.224;27.976;2022-11-18T03:53:42;3.07;;;2.87;;
5965;SDS011;3009;43.224;27.976;2022-11-18T03:56:15;5.53;;;3.27;;
5965;SDS011;3009;43.224;27.976;2022-11-18T03:58:50;3.03;;;2.83;;
5965;SDS011;3009;43.224;27.976;2022-11-18T04:01:26;3.43;;;3.10;;
5965;SDS011;3009;43.224;27.976;2022-11-18T04:04:00;3.53;;;3.30;;
5965;SDS011;3009;43.224;27.976;2022-11-18T04:06:29;4.23;;;3.93;;
5965;SDS011;3009;43.224;27.976;2022-11-18T04:09:05;5.43;;;4.30;;
5965;SDS011;3009;43.224;27.976;2022-11-18T04:11:40;4.87;;;4.33;;
5965;SDS011;3009;43.224;27.976;2022-11-18T04:14:30;4.33;;;4.00;;
5965;SDS011;3009;43.224;27.976;2022-11-18T04:17:03;6.07;;;4.50;;
5965;SDS011;3009;43.224;27.976;2022-11-18T04:19:34;4.50;;;3.57;;
5965;SDS011;3009;43.224;27.976;2022-11-18T04:22:02;5.10;;;3.90;;
5965;SDS011;3009;43.224;27.976;2022-11-18T04:24:31;5.33;;;4.40;;
5965;SDS011;3009;43.224;27.976;2022-11-18T04:26:59;5.30;;;4.70;;
5965;SDS011;3009;43.224;27.976;2022-11-18T04:29:28;7.67;;;4.10;;
5965;SDS011;3009;43.224;27.976;2022-11-18T04:31:56;5.00;;;4.60;;
5965;SDS011;3009;43.224;27.976;2022-11-18T04:34:25;4.87;;;4.43;;
5965;SDS011;3009;43.224;27.976;2022-11-18T04:36:54;5.03;;;4.47;;
5965;SDS011;3009;43.224;27.976;2022-11-18T04:39:22;6.60;;;4.50;;
5965;SDS011;3009;43.224;27.976;2022-11-18T04:41:50;5.00;;;4.60;;
5965;SDS011;3009;43.224;27.976;2022-11-18T04:44:25;5.17;;;4.77;;
5965;SDS011;3009;43.224;27.976;2022-11-18T04:46:55;4.47;;;4.07;;
5965;SDS011;3009;43.224;27.976;2022-11-18T04:49:27;4.63;;;4.23;;
5965;SDS011;3009;43.224;27.976;2022-11-18T04:51:56;5.80;;;4.80;;
5965;SDS011;3009;43.224;27.976;2022-11-18T04:54:25;6.30;;;4.20;;
5965;SDS011;3009;43.224;27.976;2022-11-18T04:56:54;4.50;;;4.10;;
5965;SDS011;3009;43.224;27.976;2022-11-18T04:59:23;4.50;;;4.10;;
5965;SDS011;3009;43.224;27.976;2022-11-18T05:01:52;6.87;;;5.10;;
5965;SDS011;3009;43.224;27.976;2022-11-18T05:04:22;5.93;;;5.10;;
5965;SDS011;3009;43.224;27.976;2022-11-18T05:06:53;5.93;;;5.40;;
5965;SDS011;3009;43.224;27.976;2022-11-18T05:09:21;8.43;;;5.17;;
5965;SDS011;3009;43.224;27.976;2022-11-18T05:11:56;5.27;;;4.83;;
5965;SDS011;3009;43.224;27.976;2022-11-18T05:14:42;5.83;;;5.23;;
5965;SDS011;3009;43.224;27.976;2022-11-18T05:17:16;7.97;;;4.33;;
5965;SDS011;3009;43.224;27.976;2022-11-18T05:19:44;4.47;;;4.17;;
5965;SDS011;3009;43.224;27.976;2022-11-18T05:22:14;9.70;;;4.20;;
5965;SDS011;3009;43.224;27.976;2022-11-18T05:24:42;5.27;;;3.97;;
5965;SDS011;3009;43.224;27.976;2022-11-18T05:27:10;10.13;;;4.43;;
5965;SDS011;3009;43.224;27.976;2022-11-18T05:29:39;6.30;;;3.73;;
5965;SDS011;3009;43.224;27.976;2022-11-18T05:32:07;7.30;;;3.90;;
5965;SDS011;3009;43.224;27.976;2022-11-18T05:34:35;12.40;;;3.80;;
5965;SDS011;3009;43.224;27.976;2022-11-18T05:37:04;4.73;;;4.33;;
5965;SDS011;3009;43.224;27.976;2022-11-18T05:39:33;7.17;;;5.23;;
5965;SDS011;3009;43.224;27.976;2022-11-18T05:42:02;16.20;;;4.40;;
5965;SDS011;3009;43.224;27.976;2022-11-18T05:44:47;18.33;;;4.67;;
5965;SDS011;3009;43.224;27.976;2022-11-18T05:47:23;5.63;;;4.27;;
5965;SDS011;3009;43.224;27.976;2022-11-18T05:49:52;10.30;;;4.90;;
5965;SDS011;3009;43.224;27.976;2022-11-18T05:52:20;7.80;;;3.90;;
5965;SDS011;3009;43.224;27.976;2022-11-18T05:54:49;8.03;;;4.20;;
5965;SDS011;3009;43.224;27.976;2022-11-18T05:57:18;4.07;;;3.70;;
5965;SDS011;3009;43.224;27.976;2022-11-18T05:59:46;9.53;;;4.73;;
5965;SDS011;3009;43.224;27.976;2022-11-18T06:02:15;5.37;;;4.87;;
5965;SDS011;3009;43.224;27.976;2022-11-18T06:04:47;6.63;;;4.07;;
5965;SDS011;3009;43.224;27.976;2022-11-18T06:07:17;4.93;;;4.40;;
5965;SDS011;3009;43.224;27.976;2022-11-18T06:09:50;4.93;;;4.47;;
5965;SDS011;3009;43.224;27.976;2022-11-18T06:12:30;4.03;;;3.70;;
5965;SDS011;3009;43.224;27.976;2022-11-18T06:15:03;4.97;;;3.60;;
5965;SDS011;3009;43.224;27.976;2022-11-18T06:17:38;4.40;;;3.80;;
5965;SDS011;3009;43.224;27.976;2022-11-18T06:20:08;4.67;;;4.10;;
5965;SDS011;3009;43.224;27.976;2022-11-18T06:22:37;11.97;;;4.30;;
5965;SDS011;3009;43.224;27.976;2022-11-18T06:25:13;6.43;;;5.40;;
5965;SDS011;3009;43.224;27.976;2022-11-18T06:27:42;8.53;;;5.03;;
5965;SDS011;3009;43.224;27.976;2022-11-18T06:30:11;7.73;;;6.27;;
5965;SDS011;3009;43.224;27.976;2022-11-18T06:32:40;13.30;;;8.07;;
5965;SDS011;3009;43.224;27.976;2022-11-18T06:35:08;6.60;;;5.63;;
5965;SDS011;3009;43.224;27.976;2022-11-18T06:37:37;8.70;;;5.60;;
5965;SDS011;3009;43.224;27.976;2022-11-18T06:40:05;4.40;;;4.00;;
5965;SDS011;3009;43.224;27.976;2022-11-18T06:42:36;3.90;;;3.60;;
5965;SDS011;3009;43.224;27.976;2022-11-18T06:45:22;5.47;;;4.50;;
5965;SDS011;3009;43.224;27.976;2022-11-18T06:47:50;4.77;;;4.37;;
5965;SDS011;3009;43.224;27.976;2022-11-18T06:50:17;6.30;;;4.60;;
5965;SDS011;3009;43.224;27.976;2022-11-18T06:52:45;7.43;;;4.60;;
5965;SDS011;3009;43.224;27.976;2022-11-18T06:55:13;4.80;;;4.40;;
5965;SDS011;3009;43.224;27.976;2022-11-18T06:57:43;5.70;;;5.10;;
5965;SDS011;3009;43.224;27.976;2022-11-18T07:00:13;4.50;;;3.93;;
5965;SDS011;3009;43.224;27.976;2022-11-18T07:02:42;6.73;;;5.20;;
5965;SDS011;3009;43.224;27.976;2022-11-18T07:05:10;6.20;;;4.80;;
5965;SDS011;3009;43.224;27.976;2022-11-18T07:07:38;4.93;;;4.53;;
5965;SDS011;3009;43.224;27.976;2022-11-18T07:10:08;5.83;;;5.30;;
5965;SDS011;3009;43.224;27.976;2022-11-18T07:12:36;7.60;;;6.80;;
5965;SDS011;3009;43.224;27.976;2022-11-18T07:15:06;5.83;;;5.33;;
5965;SDS011;3009;43.224;27.976;2022-11-18T07:17:35;6.40;;;5.10;;
5965;SDS011;3009;43.224;27.976;2022-11-18T07:20:03;5.40;;;5.00;;
5965;SDS011;3009;43.224;27.976;2022-11-18T07:22:32;10.50;;;9.00;;
5965;SDS011;3009;43.224;27.976;2022-11-18T07:25:00;12.03;;;7.30;;
5965;SDS011;3009;43.224;27.976;2022-11-18T07:27:28;8.90;;;7.43;;
5965;SDS011;3009;43.224;27.976;2022-11-18T07:29:56;5.70;;;5.20;;
5965;SDS011;3009;43.224;27.976;2022-11-18T07:32:26;7.30;;;5.73;;
5965;SDS011;3009;43.224;27.976;2022-11-18T07:34:54;11.23;;;7.13;;
5965;SDS011;3009;43.224;27.976;2022-11-18T07:37:22;7.40;;;5.93;;
5965;SDS011;3009;43.224;27.976;2022-11-18T07:39:50;7.13;;;6.10;;
5965;SDS011;3009;43.224;27.976;2022-11-18T07:42:18;9.07;;;6.60;;
5965;SDS011;3009;43.224;27.976;2022-11-18T07:44:46;8.70;;;6.40;;
5965;SDS011;3009;43.224;27.976;2022-11-18T07:47:14;10.90;;;7.60;;
5965;SDS011;3009;43.224;27.976;2022-11-18T07:49:45;7.23;;;5.90;;
5965;SDS011;3009;43.224;27.976;2022-11-18T07:52:13;9.10;;;6.93;;
5965;SDS011;3009;43.224;27.976;2022-11-18T07:54:41;12.63;;;6.63;;
5965;SDS011;3009;43.224;27.976;2022-11-18T07:57:09;9.27;;;7.07;;
5965;SDS011;3009;43.224;27.976;2022-11-18T07:59:37;9.37;;;6.70;;
5965;SDS011;3009;43.224;27.976;2022-11-18T08:02:06;7.60;;;6.80;;
5965;SDS011;3009;43.224;27.976;2022-11-18T08:04:37;19.33;;;11.50;;
5965;SDS011;3009;43.224;27.976;2022-11-18T08:07:09;18.77;;;12.97;;
5965;SDS011;3009;43.224;27.976;2022-11-18T08:09:37;9.10;;;7.80;;
5965;SDS011;3009;43.224;27.976;2022-11-18T08:12:05;9.63;;;7.30;;
5965;SDS011;3009;43.224;27.976;2022-11-18T08:14:33;7.13;;;6.43;;
5965;SDS011;3009;43.224;27.976;2022-11-18T08:17:01;11.80;;;7.20;;
5965;SDS011;3009;43.224;27.976;2022-11-18T08:19:30;11.03;;;7.03;;
5965;SDS011;3009;43.224;27.976;2022-11-18T08:22:00;6.73;;;6.13;;
5965;SDS011;3009;43.224;27.976;2022-11-18T08:24:30;7.23;;;6.50;;
5965;SDS011;3009;43.224;27.976;2022-11-18T08:26:58;13.37;;;9.10;;
5965;SDS011;3009;43.224;27.976;2022-11-18T08:29:26;7.73;;;5.93;;
5965;SDS011;3009;43.224;27.976;2022-11-18T08:31:55;6.47;;;5.90;;
5965;SDS011;3009;43.224;27.976;2022-11-18T08:34:23;7.97;;;5.70;;
5965;SDS011;3009;43.224;27.976;2022-11-18T08:36:51;9.07;;;6.00;;
5965;SDS011;3009;43.224;27.976;2022-11-18T08:39:19;9.63;;;6.10;;
5965;SDS011;3009;43.224;27.976;2022-11-18T08:41:49;14.67;;;6.03;;
5965;SDS011;3009;43.224;27.976;2022-11-18T08:44:17;13.20;;;9.60;;
5965;SDS011;3009;43.224;27.976;2022-11-18T08:46:45;13.23;;;8.27;;
5965;SDS011;3009;43.224;27.976;2022-11-18T08:49:13;7.47;;;6.77;;
5965;SDS011;3009;43.224;27.976;2022-11-18T08:51:42;7.77;;;6.17;;
5965;SDS011;3009;43.224;27.976;2022-11-18T08:54:10;11.00;;;7.10;;
5965;SDS011;3009;43.224;27.976;2022-11-18T08:56:38;13.40;;;6.80;;
5965;SDS011;3009;43.224;27.976;2022-11-18T08:59:09;8.53;;;7.20;;
5965;SDS011;3009;43.224;27.976;2022-11-18T09:01:38;7.57;;;6.80;;
5965;SDS011;3009;43.224;27.976;2022-11-18T09:04:07;7.87;;;7.07;;
5965;SDS011;3009;43.224;27.976;2022-11-18T09:06:35;11.00;;;6.63;;
5965;SDS011;3009;43.224;27.976;2022-11-18T09:09:05;12.60;;;7.40;;
5965;SDS011;3009;43.224;27.976;2022-11-18T09:11:34;8.17;;;7.37;;
5965;SDS011;3009;43.224;27.976;2022-11-18T09:14:05;10.07;;;6.93;;
5965;SDS011;3009;43.224;27.976;2022-11-18T09:16:54;9.33;;;6.60;;
5965;SDS011;3009;43.224;27.976;2022-11-18T09:19:23;9.20;;;7.30;;
5965;SDS011;3009;43.224;27.976;2022-11-18T09:22:11;9.37;;;7.00;;
5965;SDS011;3009;43.224;27.976;2022-11-18T09:24:39;10.93;;;7.40;;
5965;SDS011;3009;43.224;27.976;2022-11-18T09:27:08;9.97;;;7.00;;
5965;SDS011;3009;43.224;27.976;2022-11-18T09:29:42;8.13;;;7.33;;
5965;SDS011;3009;43.224;27.976;2022-11-18T09:32:12;7.30;;;6.60;;
5965;SDS011;3009;43.224;27.976;2022-11-18T09:34:40;9.23;;;7.60;;
5965;SDS011;3009;43.224;27.976;2022-11-18T09:37:08;9.03;;;6.83;;
5965;SDS011;3009;43.224;27.976;2022-11-18T09:39:36;8.23;;;7.50;;
5965;SDS011;3009;43.224;27.976;2022-11-18T09:42:09;8.30;;;6.90;;
5965;SDS011;3009;43.224;27.976;2022-11-18T09:44:50;6.60;;;6.00;;
5965;SDS011;3009;43.224;27.976;2022-11-18T09:47:38;8.13;;;6.90;;
5965;SDS011;3009;43.224;27.976;2022-11-18T09:50:09;8.53;;;7.20;;
5965;SDS011;3009;43.224;27.976;2022-11-18T09:53:02;11.30;;;7.27;;
5965;SDS011;3009;43.224;27.976;2022-11-18T09:55:37;9.00;;;7.13;;
5965;SDS011;3009;43.224;27.976;2022-11-18T09:58:10;7.73;;;6.80;;
5965;SDS011;3009;43.224;27.976;2022-11-18T10:00:43;9.23;;;7.43;;
5965;SDS011;3009;43.224;27.976;2022-11-18T10:03:14;8.33;;;7.37;;
5965;SDS011;3009;43.224;27.976;2022-11-18T10:05:50;12.90;;;7.90;;
5965;SDS011;3009;43.224;27.976;2022-11-18T10:08:23;13.53;;;7.13;;
5965;SDS011;3009;43.224;27.976;2022-11-18T10:10:57;12.90;;;7.83;;
5965;SDS011;3009;43.224;27.976;2022-11-18T10:13:39;9.50;;;8.53;;
5965;SDS011;3009;43.224;27.976;2022-11-18T10:16:31;8.13;;;7.00;;
5965;SDS011;3009;43.224;27.976;2022-11-18T10:19:10;11.40;;;8.13;;
5965;SDS011;3009;43.224;27.976;2022-11-18T10:21:54;14.80;;;8.60;;
5965;SDS011;3009;43.224;27.976;2022-11-18T10:24:43;14.50;;;8.73;;
5965;SDS011;3009;43.224;27.976;2022-11-18T10:27:15;13.83;;;9.27;;
5965;SDS011;3009;43.224;27.976;2022-11-18T10:29:45;15.07;;;8.93;;
5965;SDS011;3009;43.224;27.976;2022-11-18T10:32:19;11.53;;;9.40;;
5965;SDS011;3009;43.224;27.976;2022-11-18T10:34:50;11.40;;;8.77;;
5965;SDS011;3009;43.224;27.976;2022-11-18T10:37:24;14.40;;;9.17;;
5965;SDS011;3009;43.224;27.976;2022-11-18T10:40:22;14.80;;;8.47;;
5965;SDS011;3009;43.224;27.976;2022-11-18T10:42:51;15.57;;;9.10;;
5965;SDS011;3009;43.224;27.976;2022-11-18T10:45:23;12.13;;;9.13;;
5965;SDS011;3009;43.224;27.976;2022-11-18T10:47:56;14.63;;;9.30;;
5965;SDS011;3009;43.224;27.976;2022-11-18T10:50:34;20.50;;;10.40;;
5965;SDS011;3009;43.224;27.976;2022-11-18T10:53:04;14.30;;;9.47;;
5965;SDS011;3009;43.224;27.976;2022-11-18T10:55:33;13.50;;;9.10;;
5965;SDS011;3009;43.224;27.976;2022-11-18T10:58:02;12.53;;;9.03;;
5965;SDS011;3009;43.224;27.976;2022-11-18T11:00:38;11.53;;;8.60;;
5965;SDS011;3009;43.224;27.976;2022-11-18T11:09:04;12.27;;;9.00;;
5965;SDS011;3009;43.224;27.976;2022-11-18T11:11:36;15.60;;;9.30;;
5965;SDS011;3009;43.224;27.976;2022-11-18T11:14:09;13.73;;;9.40;;
5965;SDS011;3009;43.224;27.976;2022-11-18T11:16:52;15.60;;;9.60;;
5965;SDS011;3009;43.224;27.976;2022-11-18T11:19:26;11.07;;;7.80;;
5965;SDS011;3009;43.224;27.976;2022-11-18T11:22:01;17.53;;;9.73;;
5965;SDS011;3009;43.224;27.976;2022-11-18T11:24:29;13.07;;;9.37;;
5965;SDS011;3009;43.224;27.976;2022-11-18T11:27:02;12.67;;;9.03;;
5965;SDS011;3009;43.224;27.976;2022-11-18T11:35:46;15.00;;;11.27;;
5965;SDS011;3009;43.224;27.976;2022-11-18T11:38:28;10.80;;;9.40;;
5965;SDS011;3009;43.224;27.976;2022-11-18T11:41:08;18.97;;;10.23;;
5965;SDS011;3009;43.224;27.976;2022-11-18T11:43:49;11.53;;;9.50;;
5965;SDS011;3009;43.224;27.976;2022-11-18T11:46:30;14.77;;;10.30;;
5965;SDS011;3009;43.224;27.976;2022-11-18T11:49:09;15.13;;;10.73;;
5965;SDS011;3009;43.224;27.976;2022-11-18T11:51:46;14.10;;;10.30;;
5965;SDS011;3009;43.224;27.976;2022-11-18T11:54:23;12.50;;;10.13;;
5965;SDS011;3009;43.224;27.976;2022-11-18T11:57:02;14.20;;;10.00;;
5965;SDS011;3009;43.224;27.976;2022-11-18T11:59:33;15.73;;;11.63;;
5965;SDS011;3009;43.224;27.976;2022-11-18T12:02:15;11.10;;;9.87;;
5965;SDS011;3009;43.224;27.976;2022-11-18T12:04:59;14.70;;;10.83;;
5965;SDS011;3009;43.224;27.976;2022-11-18T12:07:37;18.83;;;11.70;;
5965;SDS011;3009;43.224;27.976;2022-11-18T12:10:18;15.23;;;11.13;;
5965;SDS011;3009;43.224;27.976;2022-11-18T12:13:05;15.40;;;11.23;;
5965;SDS011;3009;43.224;27.976;2022-11-18T12:15:52;13.53;;;10.57;;
5965;SDS011;3009;43.224;27.976;2022-11-18T12:18:30;15.33;;;11.50;;
5965;SDS011;3009;43.224;27.976;2022-11-18T12:21:04;13.20;;;11.03;;
5965;SDS011;3009;43.224;27.976;2022-11-18T12:23:32;13.40;;;10.30;;
5965;SDS011;3009;43.224;27.976;2022-11-18T12:26:03;15.23;;;11.00;;
5965;SDS011;3009;43.224;27.976;2022-11-18T12:28:36;17.83;;;12.40;;
5965;SDS011;3009;43.224;27.976;2022-11-18T12:34:04;23.50;;;12.67;;
5965;SDS011;3009;43.224;27.976;2022-11-18T12:36:45;16.73;;;11.73;;
5965;SDS011;3009;43.224;27.976;2022-11-18T12:42:35;26.63;;;12.70;;
5965;SDS011;3009;43.224;27.976;2022-11-18T12:48:28;12.77;;;9.77;;
5965;SDS011;3009;43.224;27.976;2022-11-18T12:51:01;13.60;;;11.10;;
5965;SDS011;3009;43.224;27.976;2022-11-18T12:53:38;12.13;;;10.60;;
5965;SDS011;3009;43.224;27.976;2022-11-18T12:56:17;11.80;;;10.60;;
5965;SDS011;3009;43.224;27.976;2022-11-18T12:58:51;17.13;;;11.20;;
5965;SDS011;3009;43.224;27.976;2022-11-18T13:01:22;21.57;;;12.83;;
5965;SDS011;3009;43.224;27.976;2022-11-18T13:03:52;15.70;;;13.70;;
5965;SDS011;3009;43.224;27.976;2022-11-18T13:06:33;29.93;;;14.77;;
5965;SDS011;3009;43.224;27.976;2022-11-18T13:09:06;31.90;;;17.07;;
5965;SDS011;3009;43.224;27.976;2022-11-18T13:11:44;20.73;;;15.00;;
5965;SDS011;3009;43.224;27.976;2022-11-18T13:14:19;25.40;;;16.33;;
5965;SDS011;3009;43.224;27.976;2022-11-18T13:17:25;25.03;;;16.97;;
5965;SDS011;3009;43.224;27.976;2022-11-18T13:20:22;25.43;;;18.40;;
5965;SDS011;3009;43.224;27.976;2022-11-18T13:22:56;30.47;;;18.60;;
5965;SDS011;3009;43.224;27.976;2022-11-18T13:25:45;28.87;;;20.53;;
5965;SDS011;3009;43.224;27.976;2022-11-18T13:28:19;31.57;;;20.47;;
5965;SDS011;3009;43.224;27.976;2022-11-18T13:30:58;25.30;;;19.20;;
5965;SDS011;3009;43.224;27.976;2022-11-18T13:33:32;35.73;;;21.03;;
5965;SDS011;3009;43.224;27.976;2022-11-18T13:36:02;33.00;;;20.17;;
5965;SDS011;3009;43.224;27.976;2022-11-18T13:38:53;31.47;;;18.83;;
5965;SDS011;3009;43.224;27.976;2022-11-18T13:41:22;34.17;;;20.10;;
5965;SDS011;3009;43.224;27.976;2022-11-18T13:46:46;29.13;;;18.90;;
5965;SDS011;3009;43.224;27.976;2022-11-18T13:49:18;36.93;;;21.13;;
5965;SDS011;3009;43.224;27.976;2022-11-18T13:51:50;34.17;;;19.90;;
5965;SDS011;3009;43.224;27.976;2022-11-18T13:54:19;34.37;;;22.90;;
5965;SDS011;3009;43.224;27.976;2022-11-18T13:56:51;38.17;;;23.30;;
5965;SDS011;3009;43.224;27.976;2022-11-18T13:59:21;37.20;;;24.60;;
5965;SDS011;3009;43.224;27.976;2022-11-18T14:01:53;35.80;;;23.87;;
5965;SDS011;3009;43.224;27.976;2022-11-18T14:04:23;38.93;;;24.63;;
5965;SDS011;3009;43.224;27.976;2022-11-18T14:06:54;34.43;;;21.67;;
5965;SDS011;3009;43.224;27.976;2022-11-18T14:09:51;48.90;;;26.77;;
5965;SDS011;3009;43.224;27.976;2022-11-18T14:12:22;49.00;;;25.70;;
5965;SDS011;3009;43.224;27.976;2022-11-18T14:17:55;37.70;;;26.17;;
5965;SDS011;3009;43.224;27.976;2022-11-18T14:20:25;44.47;;;24.50;;
5965;SDS011;3009;43.224;27.976;2022-11-18T14:22:55;38.10;;;24.60;;
5965;SDS011;3009;43.224;27.976;2022-11-18T14:25:25;40.53;;;23.87;;
5965;SDS011;3009;43.224;27.976;2022-11-18T14:27:56;35.43;;;22.27;;
5965;SDS011;3009;43.224;27.976;2022-11-18T14:30:36;44.23;;;23.20;;
5965;SDS011;3009;43.224;27.976;2022-11-18T14:33:10;43.87;;;24.53;;
5965;SDS011;3009;43.224;27.976;2022-11-18T14:35:40;39.23;;;26.77;;
5965;SDS011;3009;43.224;27.976;2022-11-18T14:38:10;43.13;;;24.93;;
5965;SDS011;3009;43.224;27.976;2022-11-18T14:41:01;39.47;;;21.70;;
5965;SDS011;3009;43.224;27.976;2022-11-18T14:43:30;42.33;;;24.20;;
5965;SDS011;3009;43.224;27.976;2022-11-18T14:45:58;59.47;;;36.00;;
5965;SDS011;3009;43.224;27.976;2022-11-18T14:48:30;42.90;;;25.67;;
5965;SDS011;3009;43.224;27.976;2022-11-18T14:50:58;37.60;;;23.33;;
5965;SDS011;3009;43.224;27.976;2022-11-18T14:53:27;42.67;;;25.20;;
5965;SDS011;3009;43.224;27.976;2022-11-18T14:55:55;44.50;;;25.10;;
5965;SDS011;3009;43.224;27.976;2022-11-18T14:58:26;41.50;;;26.07;;
5965;SDS011;3009;43.224;27.976;2022-11-18T15:00:54;42.50;;;24.60;;
5965;SDS011;3009;43.224;27.976;2022-11-18T15:03:22;49.87;;;27.83;;
5965;SDS011;3009;43.224;27.976;2022-11-18T15:05:51;48.90;;;25.73;;
5965;SDS011;3009;43.224;27.976;2022-11-18T15:08:20;41.83;;;24.27;;
5965;SDS011;3009;43.224;27.976;2022-11-18T15:10:48;47.70;;;27.00;;
5965;SDS011;3009;43.224;27.976;2022-11-18T15:13:16;49.63;;;28.13;;
5965;SDS011;3009;43.224;27.976;2022-11-18T15:15:44;50.03;;;32.77;;
5965;SDS011;3009;43.224;27.976;2022-11-18T15:18:12;76.93;;;38.17;;
5965;SDS011;3009;43.224;27.976;2022-11-18T15:20:40;55.77;;;35.57;;
5965;SDS011;3009;43.224;27.976;2022-11-18T15:23:10;50.27;;;26.87;;
5965;SDS011;3009;43.224;27.976;2022-11-18T15:25:38;52.77;;;25.87;;
5965;SDS011;3009;43.224;27.976;2022-11-18T15:28:07;50.37;;;26.97;;
5965;SDS011;3009;43.224;27.976;2022-11-18T15:30:36;53.83;;;26.30;;
5965;SDS011;3009;43.224;27.976;2022-11-18T15:33:04;44.60;;;26.00;;
5965;SDS011;3009;43.224;27.976;2022-11-18T15:35:33;46.73;;;27.13;;
5965;SDS011;3009;43.224;27.976;2022-11-18T15:38:03;58.80;;;32.40;;
5965;SDS011;3009;43.224;27.976;2022-11-18T15:40:33;59.53;;;36.20;;
5965;SDS011;3009;43.224;27.976;2022-11-18T15:43:02;66.60;;;38.63;;
5965;SDS011;3009;43.224;27.976;2022-11-18T15:45:30;60.17;;;32.87;;
5965;SDS011;3009;43.224;27.976;2022-11-18T15:47:58;58.70;;;31.33;;
5965;SDS011;3009;43.224;27.976;2022-11-18T15:50:26;55.93;;;33.60;;
5965;SDS011;3009;43.224;27.976;2022-11-18T15:52:55;59.77;;;32.30;;
5965;SDS011;3009;43.224;27.976;2022-11-18T15:55:23;57.40;;;35.37;;
5965;SDS011;3009;43.224;27.976;2022-11-18T15:57:53;70.37;;;35.23;;
5965;SDS011;3009;43.224;27.976;2022-11-18T16:00:21;61.73;;;35.00;;